createdAt,value
2022-08-09T00:00:11.821Z,0.00
2022-08-09T00:01:10.721Z,0.00
2022-08-09T00:02:08.507Z,0.00
2022-08-09T00:03:18.858Z,0.00
2022-08-09T00:04:15.301Z,0.00
2022-08-09T00:06:17.698Z,0.00
2022-08-09T00:06:18.831Z,0.00
2022-08-09T00:07:10.771Z,0.00
2022-08-09T00:08:09.684Z,0.00
2022-08-09T00:09:07.403Z,0.00
2022-08-09T00:10:07.392Z,0.00
2022-08-09T00:11:24.436Z,0.00
2022-08-09T00:12:08.381Z,0.00
2022-08-09T00:13:16.803Z,0.00
2022-08-09T00:14:08.275Z,0.00
2022-08-09T00:15:07.288Z,0.00
2022-08-09T00:16:08.289Z,0.00
2022-08-09T00:17:07.266Z,0.00
2022-08-09T00:18:11.254Z,0.00
2022-08-09T00:19:09.379Z,0.00
2022-08-09T00:20:07.250Z,0.00
2022-08-09T00:21:07.944Z,0.00
2022-08-09T00:22:07.255Z,0.00
2022-08-09T00:23:53.982Z,0.00
2022-08-09T00:24:08.173Z,0.00
2022-08-09T00:25:08.431Z,0.00
2022-08-09T00:26:07.155Z,0.00
2022-08-09T00:27:07.159Z,0.00
2022-08-09T00:28:07.159Z,0.00
2022-08-09T00:29:12.521Z,0.00
2022-08-09T00:30:16.458Z,0.00
2022-08-09T00:31:50.457Z,0.00
2022-08-09T00:32:08.133Z,0.00
2022-08-09T00:33:07.085Z,0.00
2022-08-09T00:34:07.078Z,0.00
2022-08-09T00:35:07.073Z,0.00
2022-08-09T00:36:07.043Z,0.00
2022-08-09T00:37:07.072Z,0.00
2022-08-09T00:38:07.031Z,0.00
2022-08-09T00:39:07.060Z,0.00
2022-08-09T00:40:14.088Z,0.00
2022-08-09T00:41:08.280Z,0.00
2022-08-09T00:44:15.692Z,0.00
2022-08-09T00:44:19.802Z,0.00
2022-08-09T00:44:26.589Z,0.00
2022-08-09T00:45:15.860Z,0.00
2022-08-09T00:46:07.960Z,0.00
2022-08-09T00:47:06.961Z,0.00
2022-08-09T00:48:06.919Z,0.00
2022-08-09T00:49:06.906Z,0.00
2022-08-09T00:50:06.922Z,0.00
2022-08-09T00:51:11.774Z,0.00
2022-08-09T00:52:17.324Z,0.00
2022-08-09T00:53:10.521Z,0.00
2022-08-09T00:54:06.848Z,0.00
2022-08-09T00:55:06.878Z,0.00
2022-08-09T00:56:09.806Z,0.00
2022-08-09T00:57:10.671Z,0.00
2022-08-09T00:58:06.804Z,0.00
2022-08-09T00:59:06.822Z,0.00
2022-08-09T01:00:20.685Z,0.00
2022-08-09T01:01:07.863Z,0.00
2022-08-09T01:02:06.796Z,0.00
2022-08-09T01:03:06.804Z,0.00
2022-08-09T01:04:06.832Z,0.00
2022-08-09T01:05:13.977Z,0.00
2022-08-09T01:06:17.907Z,0.00
2022-08-09T01:07:07.753Z,0.00
2022-08-09T01:08:07.687Z,0.00
2022-08-09T01:09:06.694Z,0.00
2022-08-09T01:10:06.756Z,0.00
2022-08-09T01:11:08.503Z,0.00
2022-08-09T01:12:06.678Z,0.00
2022-08-09T01:13:07.430Z,0.00
2022-08-09T01:14:06.798Z,0.00
2022-08-09T01:15:09.989Z,0.00
2022-08-09T01:16:07.617Z,0.00
2022-08-09T01:17:08.835Z,0.00
2022-08-09T01:18:06.581Z,0.00
2022-08-09T01:19:06.617Z,0.00
2022-08-09T01:20:07.588Z,0.00
2022-08-09T01:21:06.573Z,0.00
2022-08-09T01:22:06.591Z,0.00
2022-08-09T01:24:00.970Z,0.00
2022-08-09T01:24:07.501Z,0.00
2022-08-09T01:25:06.525Z,0.00
2022-08-09T01:26:06.494Z,0.00
2022-08-09T01:27:07.911Z,0.00
2022-08-09T01:28:06.476Z,0.00
2022-08-09T01:29:06.495Z,0.00
2022-08-09T01:30:06.456Z,0.00
2022-08-09T01:31:06.456Z,0.00
2022-08-09T01:32:31.750Z,0.00
2022-08-09T01:33:07.408Z,0.00
2022-08-09T01:34:06.443Z,0.00
2022-08-09T01:35:07.098Z,0.00
2022-08-09T01:36:07.485Z,0.00
2022-08-09T01:37:06.373Z,0.00
2022-08-09T01:38:10.479Z,0.00
2022-08-09T01:39:07.393Z,0.00
2022-08-09T01:40:06.363Z,0.00
2022-08-09T01:41:06.379Z,0.00
2022-08-09T01:42:11.198Z,0.00
2022-08-09T01:43:07.328Z,0.00
2022-08-09T01:44:06.369Z,0.00
2022-08-09T01:45:06.294Z,0.00
2022-08-09T01:46:06.268Z,0.00
2022-08-09T01:47:06.313Z,0.00
2022-08-09T01:48:07.314Z,0.00
2022-08-09T01:49:09.758Z,0.00
2022-08-09T01:50:06.398Z,0.00
2022-08-09T01:51:06.271Z,0.00
2022-08-09T01:52:07.447Z,0.00
2022-08-09T01:53:19.749Z,0.00
2022-08-09T01:54:07.204Z,0.00
2022-08-09T01:55:06.189Z,0.00
2022-08-09T01:56:06.176Z,0.00
2022-08-09T01:57:06.148Z,0.00
2022-08-09T01:58:06.153Z,0.00
2022-08-09T01:59:06.150Z,0.00
2022-08-09T02:00:09.105Z,0.00
2022-08-09T02:01:07.896Z,0.00
2022-08-09T02:02:06.120Z,0.00
2022-08-09T02:03:06.515Z,0.00
2022-08-09T02:04:06.087Z,0.00
2022-08-09T02:05:15.533Z,0.00
2022-08-09T02:06:07.180Z,0.00
2022-08-09T02:07:06.059Z,0.00
2022-08-09T02:08:41.253Z,0.00
2022-08-09T02:09:07.091Z,0.00
2022-08-09T02:10:06.036Z,0.00
2022-08-09T02:11:16.868Z,0.00
2022-08-09T02:12:06.990Z,0.00
2022-08-09T02:13:06.055Z,0.00
2022-08-09T02:14:07.120Z,0.00
2022-08-09T02:15:06.415Z,0.00
2022-08-09T02:16:05.957Z,0.00
2022-08-09T02:17:29.515Z,0.00
2022-08-09T02:18:10.436Z,0.00
2022-08-09T02:19:05.942Z,0.00
2022-08-09T02:20:05.956Z,0.00
2022-08-09T02:21:05.907Z,0.00
2022-08-09T02:22:05.957Z,0.00
2022-08-09T02:23:05.938Z,0.00
2022-08-09T02:24:05.938Z,0.00
2022-08-09T02:25:06.749Z,0.00
2022-08-09T02:26:05.867Z,0.00
2022-08-09T02:27:05.836Z,0.00
2022-08-09T02:28:09.554Z,0.00
2022-08-09T02:29:05.849Z,0.00
2022-08-09T02:30:05.785Z,0.00
2022-08-09T02:31:06.193Z,0.00
2022-08-09T02:32:05.762Z,0.00
2022-08-09T02:33:07.954Z,0.00
2022-08-09T02:34:13.735Z,0.00
2022-08-09T02:35:17.262Z,0.00
2022-08-09T02:36:06.779Z,0.00
2022-08-09T02:37:05.742Z,0.00
2022-08-09T02:38:05.720Z,0.00
2022-08-09T02:39:05.856Z,0.00
2022-08-09T02:40:09.504Z,0.00
2022-08-09T02:41:07.539Z,0.00
2022-08-09T02:42:05.744Z,0.00
2022-08-09T02:43:05.782Z,0.00
2022-08-09T02:44:10.505Z,0.00
2022-08-09T02:45:06.824Z,0.00
2022-08-09T02:46:05.631Z,0.00
2022-08-09T02:47:05.603Z,0.00
2022-08-09T02:48:05.635Z,0.00
2022-08-09T02:49:06.607Z,0.00
2022-08-09T02:50:05.647Z,0.00
2022-08-09T02:51:05.628Z,0.00
2022-08-09T02:52:05.555Z,0.00
2022-08-09T02:53:05.626Z,0.00
2022-08-09T02:54:05.550Z,0.00
2022-08-09T02:55:20.175Z,0.00
2022-08-09T02:56:06.541Z,0.00
2022-08-09T02:57:13.986Z,0.00
2022-08-09T02:58:32.242Z,0.00
2022-08-09T02:59:06.497Z,0.00
2022-08-09T03:00:21.079Z,0.00
2022-08-09T03:01:07.888Z,0.00
2022-08-09T03:02:07.128Z,0.00
2022-08-09T03:03:06.482Z,0.00
2022-08-09T03:04:16.925Z,0.00
2022-08-09T03:05:06.459Z,0.00
2022-08-09T03:06:05.548Z,0.00
2022-08-09T03:07:12.537Z,0.00
2022-08-09T03:08:06.388Z,0.00
2022-08-09T03:09:05.374Z,0.00
2022-08-09T03:10:05.370Z,0.00
2022-08-09T03:11:05.376Z,0.00
2022-08-09T03:12:11.311Z,0.00
2022-08-09T03:13:08.564Z,0.00
2022-08-09T03:14:05.342Z,0.00
2022-08-09T03:15:05.812Z,0.00
2022-08-09T03:16:07.113Z,0.00
2022-08-09T03:17:05.738Z,0.00
2022-08-09T03:18:09.700Z,0.00
2022-08-09T03:19:06.261Z,0.00
2022-08-09T03:20:11.542Z,0.00
2022-08-09T03:21:06.238Z,0.00
2022-08-09T03:22:05.217Z,0.00
2022-08-09T03:23:14.592Z,0.00
2022-08-09T03:24:06.193Z,0.00
2022-08-09T03:25:21.671Z,0.00
2022-08-09T03:26:06.165Z,0.00
2022-08-09T03:27:05.196Z,0.00
2022-08-09T03:28:05.150Z,0.00
2022-08-09T03:29:09.792Z,0.00
2022-08-09T03:30:07.491Z,0.00
2022-08-09T03:31:10.486Z,0.00
2022-08-09T03:32:06.153Z,0.00
2022-08-09T03:33:05.537Z,0.00
2022-08-09T03:34:06.125Z,0.00
2022-08-09T03:35:05.101Z,0.00
2022-08-09T03:36:13.844Z,0.00
2022-08-09T03:37:10.668Z,0.00
2022-08-09T03:38:06.038Z,0.00
2022-08-09T03:39:05.139Z,4.00
2022-08-09T03:40:05.082Z,4.00
2022-08-09T03:41:05.011Z,0.00
2022-08-09T03:42:06.097Z,4.00
2022-08-09T03:43:04.999Z,4.00
2022-08-09T03:44:08.246Z,4.00
2022-08-09T03:45:04.987Z,4.00
2022-08-09T03:46:20.064Z,8.00
2022-08-09T03:47:05.970Z,8.00
2022-08-09T03:48:04.939Z,8.00
2022-08-09T03:49:08.841Z,8.00
2022-08-09T03:50:04.986Z,12.00
2022-08-09T03:51:04.979Z,12.00
2022-08-09T03:52:04.882Z,12.00
2022-08-09T03:53:05.278Z,16.00
2022-08-09T03:54:04.897Z,24.00
2022-08-09T03:55:07.522Z,24.00
2022-08-09T03:56:04.882Z,32.00
2022-08-09T03:57:18.297Z,36.00
2022-08-09T03:58:16.370Z,40.00
2022-08-09T03:59:07.142Z,48.00
2022-08-09T04:00:04.794Z,56.00
2022-08-09T04:01:04.907Z,64.00
2022-08-09T04:02:04.806Z,72.00
2022-08-09T04:03:04.766Z,84.00
2022-08-09T04:04:09.584Z,92.00
2022-08-09T04:05:17.112Z,108.00
2022-08-09T04:06:05.784Z,120.00
2022-08-09T04:07:04.742Z,136.00
2022-08-09T04:08:04.762Z,152.00
2022-08-09T04:09:04.735Z,172.00
2022-08-09T04:10:05.712Z,192.00
2022-08-09T04:11:04.723Z,212.00
2022-08-09T04:12:04.658Z,236.00
2022-08-09T04:13:04.775Z,264.00
2022-08-09T04:14:53.592Z,288.00
2022-08-09T04:15:11.448Z,316.00
2022-08-09T04:16:19.736Z,344.00
2022-08-09T04:17:05.610Z,376.00
2022-08-09T04:18:04.602Z,408.00
2022-08-09T04:19:04.629Z,444.00
2022-08-09T04:20:05.612Z,476.00
2022-08-09T04:21:04.636Z,512.00
2022-08-09T04:22:04.597Z,548.00
2022-08-09T04:23:09.921Z,588.00
2022-08-09T04:24:04.588Z,628.00
2022-08-09T04:25:04.549Z,668.00
2022-08-09T04:26:04.525Z,712.00
2022-08-09T04:27:04.532Z,752.00
2022-08-09T04:28:04.516Z,796.00
2022-08-09T04:29:10.816Z,840.00
2022-08-09T04:30:05.538Z,884.00
2022-08-09T04:31:08.235Z,928.00
2022-08-09T04:32:05.497Z,976.00
2022-08-09T04:33:04.442Z,1024.00
2022-08-09T04:34:04.432Z,1068.00
2022-08-09T04:35:04.474Z,1120.00
2022-08-09T04:36:04.470Z,1164.00
2022-08-09T04:37:04.404Z,1216.00
2022-08-09T04:38:04.426Z,1264.00
2022-08-09T04:39:04.478Z,1312.00
2022-08-09T04:40:04.413Z,1364.00
2022-08-09T04:41:04.360Z,1412.00
2022-08-09T04:42:05.375Z,1456.00
2022-08-09T04:43:05.536Z,1508.00
2022-08-09T04:44:06.887Z,1556.00
2022-08-09T04:45:05.334Z,1600.00
2022-08-09T04:46:04.311Z,1648.00
2022-08-09T04:47:06.325Z,1696.00
2022-08-09T04:48:09.911Z,1740.00
2022-08-09T04:49:05.278Z,1788.00
2022-08-09T04:50:04.300Z,1832.00
2022-08-09T04:51:04.283Z,1876.00
2022-08-09T04:52:04.298Z,1920.00
2022-08-09T04:53:04.245Z,1964.00
2022-08-09T04:54:04.250Z,2008.00
2022-08-09T04:55:06.502Z,2048.00
2022-08-09T04:56:05.546Z,2096.00
2022-08-09T04:57:04.285Z,2136.00
2022-08-09T04:58:09.497Z,2180.00
2022-08-09T04:59:13.129Z,2220.00
2022-08-09T05:00:05.192Z,2264.00
2022-08-09T05:01:04.171Z,2304.00
2022-08-09T05:02:05.155Z,2344.00
2022-08-09T05:03:12.896Z,2392.00
2022-08-09T05:04:05.146Z,2436.00
2022-08-09T05:05:09.712Z,2480.00
2022-08-09T05:06:07.031Z,2520.00
2022-08-09T05:07:04.068Z,2560.00
2022-08-09T05:08:04.076Z,2604.00
2022-08-09T05:09:04.047Z,2648.00
2022-08-09T05:10:04.039Z,2684.00
2022-08-09T05:11:06.779Z,2724.00
2022-08-09T05:12:03.999Z,2764.00
2022-08-09T05:13:04.160Z,2804.00
2022-08-09T05:14:05.957Z,2840.00
2022-08-09T05:15:04.013Z,2876.00
2022-08-09T05:16:04.971Z,2920.00
2022-08-09T05:17:03.979Z,2956.00
2022-08-09T05:18:38.601Z,2996.00
2022-08-09T05:19:04.980Z,3032.00
2022-08-09T05:20:03.987Z,3060.00
2022-08-09T05:21:20.718Z,3100.00
2022-08-09T05:22:04.903Z,3136.00
2022-08-09T05:23:58.115Z,3172.00
2022-08-09T05:24:05.216Z,3208.00
2022-08-09T05:25:03.890Z,3244.00
2022-08-09T05:26:03.927Z,3280.00
2022-08-09T05:27:03.842Z,3316.00
2022-08-09T05:28:03.847Z,3360.00
2022-08-09T05:29:03.874Z,3436.00
2022-08-09T05:30:03.831Z,3444.00
2022-08-09T05:31:09.524Z,3472.00
2022-08-09T05:32:05.785Z,3508.00
2022-08-09T05:33:03.780Z,3544.00
2022-08-09T05:34:04.805Z,3584.00
2022-08-09T05:35:03.796Z,3620.00
2022-08-09T05:36:03.739Z,3672.00
2022-08-09T05:37:05.871Z,3712.00
2022-08-09T05:38:03.756Z,3736.00
2022-08-09T05:39:03.747Z,3776.00
2022-08-09T05:40:03.827Z,3820.00
2022-08-09T05:41:03.692Z,3860.00
2022-08-09T05:42:04.570Z,3908.00
2022-08-09T05:43:03.698Z,3956.00
2022-08-09T05:44:03.687Z,4004.00
2022-08-09T05:45:03.665Z,4048.00
2022-08-09T05:46:03.660Z,4100.00
2022-08-09T05:47:05.596Z,4140.00
2022-08-09T05:48:03.650Z,4200.00
2022-08-09T05:49:03.613Z,4252.00
2022-08-09T05:50:23.580Z,4292.00
2022-08-09T05:51:30.236Z,4332.00
2022-08-09T05:52:04.622Z,4384.00
2022-08-09T05:53:03.559Z,4432.00
2022-08-09T05:54:03.556Z,4472.00
2022-08-09T05:55:07.184Z,4520.00
2022-08-09T05:56:04.545Z,4564.00
2022-08-09T05:57:03.521Z,4608.00
2022-08-09T05:58:04.084Z,4640.00
2022-08-09T05:59:03.501Z,4672.00
2022-08-09T06:00:03.534Z,4712.00
2022-08-09T06:01:03.562Z,4736.00
2022-08-09T06:02:03.459Z,4760.00
2022-08-09T06:03:03.839Z,4796.00
2022-08-09T06:04:05.943Z,4812.00
2022-08-09T06:05:03.490Z,4836.00
2022-08-09T06:06:04.724Z,4876.00
2022-08-09T06:07:03.442Z,4928.00
2022-08-09T06:08:05.528Z,4932.00
2022-08-09T06:09:05.589Z,4960.00
2022-08-09T06:10:04.400Z,4984.00
2022-08-09T06:11:16.589Z,5008.00
2022-08-09T06:12:04.465Z,5068.00
2022-08-09T06:13:12.495Z,5108.00
2022-08-09T06:14:04.350Z,5100.00
2022-08-09T06:15:08.148Z,5140.00
2022-08-09T06:16:05.037Z,5212.00
2022-08-09T06:17:09.111Z,5632.00
2022-08-09T06:18:04.380Z,6056.00
2022-08-09T06:19:03.281Z,5824.00
2022-08-09T06:20:03.306Z,5448.00
2022-08-09T06:21:04.254Z,5560.00
2022-08-09T06:22:03.333Z,6048.00
2022-08-09T06:23:03.251Z,5584.00
2022-08-09T06:24:03.223Z,5416.00
2022-08-09T06:25:03.261Z,6060.00
2022-08-09T06:26:03.256Z,6564.00
2022-08-09T06:27:03.210Z,7136.00
2022-08-09T06:28:03.170Z,7948.00
2022-08-09T06:29:05.088Z,7424.00
2022-08-09T06:30:09.466Z,6752.00
2022-08-09T06:31:04.167Z,11840.00
2022-08-09T06:32:08.308Z,5820.00
2022-08-09T06:33:30.586Z,5760.00
2022-08-09T06:34:04.123Z,5736.00
2022-08-09T06:35:06.310Z,6080.00
2022-08-09T06:36:03.089Z,5820.00
2022-08-09T06:37:03.090Z,6712.00
2022-08-09T06:38:06.760Z,7400.00
2022-08-09T06:39:08.942Z,8012.00
2022-08-09T06:40:21.676Z,7692.00
2022-08-09T06:41:04.048Z,7280.00
2022-08-09T06:42:09.108Z,6996.00
2022-08-09T06:43:04.011Z,7076.00
2022-08-09T06:44:03.025Z,6716.00
2022-08-09T06:45:20.440Z,6444.00
2022-08-09T06:46:07.411Z,6452.00
2022-08-09T06:47:03.997Z,6324.00
2022-08-09T06:48:02.948Z,6448.00
2022-08-09T06:49:03.065Z,6492.00
2022-08-09T06:50:14.754Z,6792.00
2022-08-09T06:51:04.381Z,6972.00
2022-08-09T06:52:02.913Z,6940.00
2022-08-09T06:53:02.933Z,6840.00
2022-08-09T06:54:02.908Z,6876.00
2022-08-09T06:55:10.027Z,6916.00
2022-08-09T06:56:03.886Z,6956.00
2022-08-09T06:57:02.930Z,6988.00
2022-08-09T06:58:04.674Z,7020.00
2022-08-09T07:00:50.249Z,7256.00
2022-08-09T07:00:54.990Z,7100.00
2022-08-09T07:01:04.079Z,7516.00
2022-08-09T07:02:04.585Z,7912.00
2022-08-09T07:03:06.039Z,8504.00
2022-08-09T07:04:03.790Z,9532.00
2022-08-09T07:05:02.803Z,11028.00
2022-08-09T07:06:05.132Z,13040.00
2022-08-09T07:07:05.025Z,15232.00
2022-08-09T07:08:02.733Z,15264.00
2022-08-09T07:09:02.740Z,11860.00
2022-08-09T07:10:13.123Z,9308.00
2022-08-09T07:11:03.796Z,8460.00
2022-08-09T07:12:02.711Z,8200.00
2022-08-09T07:13:18.558Z,8184.00
2022-08-09T07:14:04.776Z,8396.00
2022-08-09T07:15:03.471Z,8836.00
2022-08-09T07:16:44.011Z,9244.00
2022-08-09T07:17:03.698Z,9596.00
2022-08-09T07:18:03.269Z,10380.00
2022-08-09T07:19:02.641Z,13492.00
2022-08-09T07:20:02.666Z,15808.00
2022-08-09T07:21:02.592Z,18976.00
2022-08-09T07:22:03.581Z,11536.00
2022-08-09T07:23:02.635Z,15200.00
2022-08-09T07:24:04.999Z,17024.00
2022-08-09T07:25:05.308Z,18208.00
2022-08-09T07:26:03.586Z,22016.00
2022-08-09T07:27:02.563Z,22432.00
2022-08-09T07:28:04.392Z,18752.00
2022-08-09T07:29:12.016Z,17184.00
2022-08-09T07:30:03.493Z,19296.00
2022-08-09T07:31:02.488Z,20480.00
2022-08-09T07:32:02.493Z,24768.00
2022-08-09T07:33:02.486Z,30048.00
2022-08-09T07:34:03.486Z,27936.00
2022-08-09T07:35:02.826Z,19360.00
2022-08-09T07:36:03.459Z,12364.00
2022-08-09T07:37:03.518Z,10572.00
2022-08-09T07:38:02.414Z,10460.00
2022-08-09T07:39:02.475Z,13100.00
2022-08-09T07:40:02.476Z,23296.00
2022-08-09T07:41:11.469Z,36608.00
2022-08-09T07:42:03.385Z,43328.00
2022-08-09T07:43:02.365Z,43008.00
2022-08-09T07:44:02.342Z,35616.00
2022-08-09T07:45:06.475Z,19520.00
2022-08-09T07:46:03.321Z,13148.00
2022-08-09T07:47:02.433Z,10136.00
2022-08-09T07:48:04.757Z,12092.00
2022-08-09T07:49:02.305Z,10288.00
2022-08-09T07:50:07.846Z,28864.00
2022-08-09T07:52:02.281Z,29888.00
2022-08-09T07:52:17.051Z,43744.00
2022-08-09T07:53:04.788Z,44800.00
2022-08-09T07:54:05.983Z,43232.00
2022-08-09T07:55:03.990Z,32512.00
2022-08-09T07:56:06.536Z,18464.00
2022-08-09T07:57:02.307Z,13048.00
2022-08-09T07:58:02.188Z,10748.00
2022-08-09T07:59:03.654Z,9696.00
2022-08-09T08:00:04.070Z,9136.00
2022-08-09T08:01:06.227Z,8788.00
2022-08-09T08:02:03.257Z,8572.00
2022-08-09T08:03:02.150Z,8412.00
2022-08-09T08:04:02.230Z,8284.00
2022-08-09T08:05:02.137Z,8204.00
2022-08-09T08:06:02.133Z,8200.00
2022-08-09T08:07:15.415Z,8188.00
2022-08-09T08:09:00.513Z,8168.00
2022-08-09T08:09:07.796Z,8180.00
2022-08-09T08:10:08.672Z,8148.00
2022-08-09T08:12:09.059Z,8104.00
2022-08-09T08:12:11.321Z,8096.00
2022-08-09T08:13:03.836Z,8088.00
2022-08-09T08:14:02.028Z,8080.00
2022-08-09T08:15:02.043Z,8072.00
2022-08-09T08:16:02.026Z,8052.00
2022-08-09T08:17:09.091Z,8020.00
2022-08-09T08:18:02.972Z,8004.00
2022-08-09T08:19:02.983Z,7972.00
2022-08-09T08:20:01.945Z,7948.00
2022-08-09T08:21:01.944Z,7936.00
2022-08-09T08:22:01.975Z,7916.00
2022-08-09T08:23:06.952Z,7916.00
2022-08-09T08:24:11.915Z,7904.00
2022-08-09T08:25:02.922Z,7896.00
2022-08-09T08:26:08.063Z,7884.00
2022-08-09T08:27:02.952Z,7876.00
2022-08-09T08:28:01.901Z,7920.00
2022-08-09T08:29:01.866Z,7924.00
2022-08-09T08:30:04.255Z,7928.00
2022-08-09T08:31:10.582Z,7924.00
2022-08-09T08:32:05.718Z,7924.00
2022-08-09T08:33:01.824Z,7912.00
2022-08-09T08:34:01.793Z,7912.00
2022-08-09T08:35:01.796Z,7928.00
2022-08-09T08:36:03.805Z,7948.00
2022-08-09T08:37:01.802Z,7964.00
2022-08-09T08:38:04.572Z,7972.00
2022-08-09T08:39:02.843Z,8024.00
2022-08-09T08:40:01.834Z,8088.00
2022-08-09T08:41:06.153Z,8148.00
2022-08-09T08:42:01.728Z,8228.00
2022-08-09T08:43:01.756Z,8224.00
2022-08-09T08:44:03.378Z,8264.00
2022-08-09T08:45:13.281Z,8312.00
2022-08-09T08:46:09.943Z,8380.00
2022-08-09T08:47:12.333Z,8464.00
2022-08-09T08:48:02.680Z,8532.00
2022-08-09T08:49:01.703Z,8604.00
2022-08-09T08:50:02.786Z,8696.00
2022-08-09T08:51:01.612Z,8828.00
2022-08-09T08:52:04.163Z,8960.00
2022-08-09T08:53:03.986Z,9124.00
2022-08-09T08:54:03.015Z,9244.00
2022-08-09T08:55:03.921Z,9408.00
2022-08-09T08:56:01.581Z,9504.00
2022-08-09T08:57:01.559Z,9664.00
2022-08-09T08:58:01.557Z,9852.00
2022-08-09T08:59:01.521Z,10084.00
2022-08-09T09:00:02.624Z,10260.00
2022-08-09T09:01:02.556Z,10600.00
2022-08-09T09:02:02.646Z,11196.00
2022-08-09T09:03:08.555Z,11936.00
2022-08-09T09:04:02.475Z,18752.00
2022-08-09T09:05:06.158Z,40160.00
2022-08-09T09:06:04.698Z,66944.00
2022-08-09T09:07:01.442Z,78624.00
2022-08-09T09:08:01.462Z,81920.00
2022-08-09T09:09:01.511Z,78432.00
2022-08-09T09:10:04.941Z,73664.00
2022-08-09T09:11:02.570Z,47232.00
2022-08-09T09:12:01.603Z,30240.00
2022-08-09T09:13:09.175Z,50592.00
2022-08-09T09:14:02.401Z,69056.00
2022-08-09T09:15:01.380Z,77312.00
2022-08-09T09:16:01.379Z,83008.00
2022-08-09T09:17:01.332Z,84608.00
2022-08-09T09:18:01.339Z,83968.00
2022-08-09T09:20:02.362Z,82496.00
2022-08-09T09:21:01.290Z,81376.00
2022-08-09T09:22:04.261Z,82656.00
2022-08-09T09:23:01.672Z,85184.00
2022-08-09T09:24:04.526Z,84704.00
2022-08-09T09:26:02.485Z,80832.00
2022-08-09T09:26:11.858Z,82656.00
2022-08-09T09:27:02.286Z,83104.00
2022-08-09T09:28:04.422Z,81760.00
2022-08-09T09:29:11.380Z,80000.00
2022-08-09T09:30:16.505Z,83104.00
2022-08-09T09:31:02.226Z,83712.00
2022-08-09T09:32:07.115Z,83424.00
2022-08-09T09:33:02.160Z,80672.00
2022-08-09T09:34:02.216Z,67520.00
2022-08-09T09:35:01.191Z,35744.00
2022-08-09T09:36:03.685Z,47552.00
2022-08-09T09:37:02.128Z,72544.00
2022-08-09T09:38:01.143Z,81984.00
2022-08-09T09:39:01.117Z,83328.00
2022-08-09T09:40:02.707Z,83712.00
2022-08-09T09:41:01.083Z,81120.00
2022-08-09T09:42:01.062Z,84064.00
2022-08-09T09:43:01.098Z,86176.00
2022-08-09T09:44:11.870Z,88288.00
2022-08-09T09:45:03.138Z,87136.00
2022-08-09T09:47:02.014Z,90400.00
2022-08-09T09:48:01.041Z,91936.00
2022-08-09T09:49:01.008Z,91072.00
2022-08-09T09:50:14.355Z,89024.00
2022-08-09T09:51:02.009Z,87328.00
2022-08-09T09:52:00.965Z,79936.00
2022-08-09T09:53:01.150Z,61440.00
2022-08-09T09:54:05.547Z,29760.00
2022-08-09T09:55:01.985Z,28096.00
2022-08-09T09:56:04.495Z,49952.00
2022-08-09T09:58:03.577Z,78336.00
2022-08-09T09:58:17.073Z,86048.00
2022-08-09T09:59:01.906Z,89216.00
2022-08-09T10:00:00.955Z,89728.00
2022-08-09T10:01:00.892Z,88256.00
2022-08-09T10:02:00.946Z,84160.00
2022-08-09T10:03:00.991Z,77824.00
2022-08-09T10:04:08.697Z,57856.00
2022-08-09T10:05:01.899Z,33920.00
2022-08-09T10:06:04.726Z,25376.00
2022-08-09T10:07:03.677Z,44992.00
2022-08-09T10:08:26.132Z,68960.00
2022-08-09T10:09:02.848Z,85312.00
2022-08-09T10:10:03.306Z,83456.00
2022-08-09T10:11:04.051Z,81888.00
2022-08-09T10:12:14.666Z,79712.00
2022-08-09T10:13:01.813Z,53984.00
2022-08-09T10:14:00.763Z,39680.00
2022-08-09T10:15:00.768Z,66720.00
2022-08-09T10:16:55.121Z,77280.00
2022-08-09T10:17:11.399Z,81696.00
2022-08-09T10:18:01.712Z,83296.00
2022-08-09T10:19:00.726Z,85888.00
2022-08-09T10:20:00.748Z,69664.00
2022-08-09T10:21:00.702Z,47584.00
2022-08-09T10:22:00.680Z,77280.00
2022-08-09T10:23:01.045Z,92800.00
2022-08-09T10:24:00.698Z,92640.00
2022-08-09T10:25:06.934Z,89536.00
2022-08-09T10:26:08.054Z,89952.00
2022-08-09T10:27:01.634Z,70304.00
2022-08-09T10:28:01.623Z,45984.00
2022-08-09T10:29:23.274Z,58816.00
2022-08-09T10:30:43.518Z,84800.00
2022-08-09T10:33:01.586Z,83616.00
2022-08-09T10:34:11.105Z,48768.00
2022-08-09T10:35:01.559Z,35488.00
2022-08-09T10:36:01.294Z,53088.00
2022-08-09T10:37:00.556Z,76704.00
2022-08-09T10:38:00.562Z,80032.00
2022-08-09T10:39:00.642Z,56064.00
2022-08-09T10:40:00.605Z,37632.00
2022-08-09T10:41:00.536Z,45856.00
2022-08-09T10:42:00.491Z,38208.00
2022-08-09T10:43:00.447Z,58112.00
2022-08-09T10:44:01.950Z,95104.00
2022-08-09T10:45:00.442Z,100864.00
2022-08-09T10:46:00.431Z,101280.00
2022-08-09T10:47:01.312Z,98880.00
2022-08-09T10:48:17.315Z,91808.00
2022-08-09T10:49:01.406Z,90048.00
2022-08-09T10:50:00.411Z,92096.00
2022-08-09T10:51:00.409Z,93344.00
2022-08-09T10:52:00.390Z,95584.00
2022-08-09T10:53:00.390Z,96288.00
2022-08-09T10:54:04.637Z,92256.00
2022-08-09T10:55:00.362Z,97440.00
2022-08-09T10:56:00.525Z,100288.00
2022-08-09T10:57:00.312Z,101664.00
2022-08-09T10:58:00.794Z,101728.00
2022-08-09T10:59:00.332Z,96896.00
2022-08-09T11:00:01.938Z,94304.00
2022-08-09T11:03:06.439Z,91360.00
2022-08-09T11:03:14.871Z,90816.00
2022-08-09T11:03:15.934Z,96608.00
2022-08-09T11:04:03.838Z,96640.00
2022-08-09T11:05:00.314Z,96704.00
2022-08-09T11:06:00.957Z,96288.00
2022-08-09T11:07:00.999Z,96288.00
2022-08-09T11:08:00.294Z,95360.00
2022-08-09T11:09:15.817Z,99200.00
2022-08-09T11:10:01.189Z,98496.00
2022-08-09T11:11:00.907Z,100320.00
2022-08-09T11:12:01.160Z,101664.00
2022-08-09T11:13:00.153Z,97280.00
2022-08-09T11:14:00.287Z,100544.00
2022-08-09T11:15:00.153Z,104128.00
2022-08-09T11:16:04.764Z,105120.00
2022-08-09T11:17:01.115Z,105344.00
2022-08-09T11:18:03.693Z,101120.00
2022-08-09T11:19:00.105Z,94720.00
2022-08-09T11:20:11.743Z,92352.00
2022-08-09T11:21:01.158Z,91392.00
2022-08-09T11:22:10.347Z,96608.00
2022-08-09T11:23:01.088Z,96864.00
2022-08-09T11:24:00.077Z,99520.00
2022-08-09T11:25:00.024Z,100192.00
2022-08-09T11:26:00.268Z,97152.00
2022-08-09T11:27:00.041Z,94112.00
2022-08-09T11:28:03.634Z,96128.00
2022-08-09T11:29:01.130Z,98624.00
2022-08-09T11:30:02.330Z,102112.00
2022-08-09T11:31:01.012Z,100096.00
2022-08-09T11:31:59.992Z,105216.00
2022-08-09T11:32:59.969Z,108032.00
2022-08-09T11:34:00.098Z,108960.00
2022-08-09T11:34:59.958Z,105984.00
2022-08-09T11:35:59.937Z,105504.00
2022-08-09T11:36:59.943Z,102784.00
2022-08-09T11:37:59.901Z,107104.00
2022-08-09T11:38:59.941Z,108128.00
2022-08-09T11:39:59.933Z,108832.00
2022-08-09T11:40:59.897Z,113536.00
2022-08-09T11:41:59.871Z,111008.00
2022-08-09T11:42:59.863Z,110464.00
2022-08-09T11:43:59.947Z,102720.00
2022-08-09T11:44:59.844Z,104224.00
2022-08-09T11:45:59.967Z,104160.00
2022-08-09T11:46:59.894Z,104128.00
2022-08-09T11:48:06.512Z,106144.00
2022-08-09T11:49:00.853Z,101472.00
2022-08-09T11:50:55.584Z,100960.00
2022-08-09T11:52:49.109Z,95296.00
2022-08-09T11:53:01.014Z,97696.00
2022-08-09T11:53:21.019Z,103456.00
2022-08-09T11:54:03.577Z,102816.00
2022-08-09T11:54:59.739Z,108192.00
2022-08-09T11:56:02.405Z,104000.00
2022-08-09T11:56:59.761Z,102112.00
2022-08-09T11:58:05.950Z,96608.00
2022-08-09T11:59:00.868Z,96288.00
2022-08-09T11:59:59.724Z,93088.00
2022-08-09T12:00:59.814Z,94784.00
2022-08-09T12:02:17.229Z,96096.00
2022-08-09T12:03:09.924Z,99200.00
2022-08-09T12:04:00.856Z,100640.00
2022-08-09T12:04:59.851Z,103200.00
2022-08-09T12:05:59.700Z,99648.00
2022-08-09T12:06:59.694Z,98912.00
2022-08-09T12:07:59.673Z,100128.00
2022-08-09T12:08:59.685Z,96416.00
2022-08-09T12:09:59.630Z,93760.00
2022-08-09T12:10:59.689Z,92832.00
2022-08-09T12:12:03.033Z,91488.00
2022-08-09T12:12:59.604Z,93664.00
2022-08-09T12:14:08.320Z,93792.00
2022-08-09T12:15:08.007Z,97472.00
2022-08-09T12:16:00.623Z,101824.00
2022-08-09T12:16:59.553Z,103680.00
2022-08-09T12:17:59.522Z,101056.00
2022-08-09T12:18:59.531Z,100768.00
2022-08-09T12:19:59.961Z,99456.00
2022-08-09T12:21:00.425Z,104864.00
2022-08-09T12:21:59.687Z,103424.00
2022-08-09T12:22:59.494Z,99104.00